Time;durP1;ratioP1;P1;durP2;ratioP2;P2;SDS_P1;SDS_P2;PMS_P1;PMS_P2;Temp;Humidity;BMP_temperature;BMP_pressure;BME280_temperature;BME280_humidity;BME280_pressure;Samples;Min_cycle;Max_cycle;Signal;HPM_P1;HPM_P2
2022/04/07 00:01:01;;;;;;;6.60;2.83;;;11.90;78.30;;;;;;5054388;28;20029;-64
2022/04/07 00:03:27;;;;;;;7.43;3.00;;;11.90;78.30;;;;;;5055557;28;20021;-64
2022/04/07 00:05:52;;;;;;;6.82;3.03;;;12.00;78.40;;;;;;5056510;28;20065;-63
2022/04/07 00:08:18;;;;;;;6.55;3.35;;;11.90;78.50;;;;;;5071299;28;20086;-64
2022/04/07 00:10:46;;;;;;;6.65;2.63;;;11.90;78.60;;;;;;5055943;28;20139;-64
2022/04/07 00:13:11;;;;;;;5.88;2.83;;;11.80;78.70;;;;;;5054197;28;20032;-64
2022/04/07 00:15:37;;;;;;;8.35;3.42;;;11.90;78.80;;;;;;5055520;28;20036;-63
2022/04/07 00:18:04;;;;;;;5.28;2.83;;;11.90;78.80;;;;;;5054368;28;20420;-63
2022/04/07 00:20:30;;;;;;;4.85;2.53;;;11.90;78.80;;;;;;5054535;28;20029;-63
2022/04/07 00:22:57;;;;;;;7.57;3.17;;;11.80;78.80;;;;;;5055038;28;20025;-63
2022/04/07 00:25:25;;;;;;;5.90;3.13;;;11.80;78.80;;;;;;5060321;28;20101;-64
2022/04/07 00:27:51;;;;;;;5.85;2.70;;;11.80;78.90;;;;;;5073225;28;20056;-63
2022/04/07 00:30:20;;;;;;;5.60;2.88;;;11.80;78.90;;;;;;5059526;28;20083;-64
2022/04/07 00:32:47;;;;;;;9.57;3.35;;;11.80;79.00;;;;;;5054912;28;20446;-63
2022/04/07 00:35:12;;;;;;;7.22;3.13;;;11.80;79.10;;;;;;5058536;28;20105;-64
2022/04/07 00:37:38;;;;;;;5.10;2.80;;;11.70;79.10;;;;;;5066586;28;20040;-63
2022/04/07 00:40:06;;;;;;;7.28;2.90;;;11.70;79.20;;;;;;5056417;28;20029;-63
2022/04/07 00:42:32;;;;;;;6.18;3.42;;;11.70;79.30;;;;;;5061342;28;20021;-64
2022/04/07 00:44:58;;;;;;;6.65;3.15;;;11.70;79.40;;;;;;5054517;28;20457;-63
2022/04/07 00:47:25;;;;;;;6.93;2.97;;;11.70;79.40;;;;;;5057874;28;20032;-64
2022/04/07 00:49:52;;;;;;;6.32;2.95;;;11.70;79.40;;;;;;5074871;28;20032;-64
2022/04/07 00:52:19;;;;;;;5.90;3.13;;;11.70;79.40;;;;;;5055005;28;20501;-64
2022/04/07 00:54:45;;;;;;;6.25;2.90;;;11.70;79.40;;;;;;5054812;28;20029;-64
2022/04/07 00:57:11;;;;;;;7.88;3.17;;;11.70;79.40;;;;;;5056117;28;20033;-64
2022/04/07 00:59:39;;;;;;;4.90;2.35;;;11.70;79.40;;;;;;5054678;28;20029;-64
2022/04/07 01:02:06;;;;;;;5.50;2.40;;;11.70;79.30;;;;;;5058667;28;20040;-63
2022/04/07 01:04:32;;;;;;;6.78;2.78;;;11.70;79.20;;;;;;5054554;28;20045;-64
2022/04/07 01:06:58;;;;;;;7.95;2.40;;;11.70;79.20;;;;;;5069400;28;20342;-63
2022/04/07 01:09:24;;;;;;;5.60;2.40;;;11.70;79.10;;;;;;5054672;28;20120;-64
2022/04/07 01:11:51;;;;;;;5.20;2.10;;;11.70;79.00;;;;;;5058283;28;20067;-64
2022/04/07 01:14:17;;;;;;;4.68;2.30;;;11.70;78.90;;;;;;5054325;28;20037;-64
2022/04/07 01:16:42;;;;;;;5.68;1.80;;;11.70;78.90;;;;;;5058146;28;20037;-64
2022/04/07 01:19:08;;;;;;;7.53;2.00;;;11.70;78.80;;;;;;5054013;28;20025;-63
2022/04/07 01:21:37;;;;;;;6.70;2.15;;;11.60;78.70;;;;;;5056810;28;20119;-64
2022/04/07 01:24:07;;;;;;;5.68;1.98;;;11.60;78.70;;;;;;5054254;28;20038;-64
2022/04/07 01:26:37;;;;;;;5.57;1.70;;;11.60;78.70;;;;;;5059782;28;20040;-64
2022/04/07 01:29:04;;;;;;;5.10;1.60;;;11.60;78.80;;;;;;5053061;28;20021;-64
2022/04/07 01:31:31;;;;;;;8.20;2.58;;;11.60;78.90;;;;;;5058051;28;20094;-64
2022/04/07 01:33:58;;;;;;;6.03;2.25;;;11.50;78.90;;;;;;5054034;28;20032;-64
2022/04/07 01:36:27;;;;;;;6.47;1.90;;;11.60;79.20;;;;;;5061407;28;20033;-64
2022/04/07 01:38:54;;;;;;;6.18;2.13;;;11.50;79.40;;;;;;5055508;28;20037;-64
2022/04/07 01:41:21;;;;;;;6.72;1.83;;;11.50;79.60;;;;;;5053502;28;20029;-64
2022/04/07 01:43:49;;;;;;;6.88;2.00;;;11.50;79.70;;;;;;5054017;28;20083;-63
2022/04/07 01:46:15;;;;;;;6.25;2.00;;;11.50;79.80;;;;;;5054139;28;20043;-64
2022/04/07 01:48:43;;;;;;;5.35;1.67;;;11.40;79.80;;;;;;5053792;28;20090;-64
2022/04/07 01:51:11;;;;;;;6.32;2.00;;;11.40;79.90;;;;;;5055479;28;20065;-64
2022/04/07 01:53:37;;;;;;;6.45;1.90;;;11.40;80.10;;;;;;5064919;28;20036;-64
2022/04/07 01:56:04;;;;;;;5.88;2.03;;;11.40;80.10;;;;;;5067837;28;20053;-63
2022/04/07 01:58:30;;;;;;;6.47;2.22;;;11.40;80.20;;;;;;5067735;28;20127;-63
2022/04/07 02:00:56;;;;;;;7.70;1.98;;;11.40;80.30;;;;;;5074722;28;20047;-63
2022/04/07 02:03:21;;;;;;;7.43;1.90;;;11.40;80.20;;;;;;5070728;28;20025;-63
2022/04/07 02:05:47;;;;;;;5.95;2.03;;;11.40;80.20;;;;;;5070200;28;20035;-63
2022/04/07 02:08:12;;;;;;;6.70;2.15;;;11.40;80.10;;;;;;5060708;28;20033;-63
2022/04/07 02:10:38;;;;;;;7.40;2.00;;;11.40;80.10;;;;;;5057888;28;20040;-63
2022/04/07 02:13:04;;;;;;;7.47;2.28;;;11.40;80.10;;;;;;5070588;28;20075;-64
2022/04/07 02:15:29;;;;;;;6.35;2.00;;;11.40;80.10;;;;;;5067317;28;20048;-63
2022/04/07 02:17:55;;;;;;;6.95;1.98;;;11.40;80.20;;;;;;5063540;28;20358;-63
2022/04/07 02:20:21;;;;;;;6.28;2.25;;;11.40;80.30;;;;;;5057729;28;20170;-64
2022/04/07 02:22:47;;;;;;;6.60;2.58;;;11.30;80.30;;;;;;5057601;28;20465;-64
2022/04/07 02:25:12;;;;;;;4.82;1.83;;;11.30;80.30;;;;;;5057602;28;20032;-64
2022/04/07 02:27:41;;;;;;;7.13;2.38;;;11.30;80.40;;;;;;5067375;28;20023;-64
2022/04/07 02:30:13;;;;;;;5.35;2.10;;;11.30;80.40;;;;;;5059905;28;20123;-64
2022/04/07 02:32:40;;;;;;;5.85;2.40;;;11.30;80.50;;;;;;5057461;28;20033;-63
2022/04/07 02:35:07;;;;;;;7.30;2.53;;;11.30;80.60;;;;;;5057313;28;20116;-63
2022/04/07 02:37:32;;;;;;;5.80;2.20;;;11.30;80.70;;;;;;5065117;28;20032;-64
2022/04/07 02:39:58;;;;;;;6.78;2.15;;;11.20;80.70;;;;;;5062152;28;20021;-64
2022/04/07 02:42:24;;;;;;;7.45;2.45;;;11.20;80.80;;;;;;5061879;28;20029;-63
2022/04/07 02:44:49;;;;;;;6.68;2.28;;;11.20;81.00;;;;;;5065412;28;20051;-64
2022/04/07 02:47:17;;;;;;;7.03;2.10;;;11.20;81.00;;;;;;5060577;28;20025;-64
2022/04/07 02:49:43;;;;;;;7.70;2.47;;;11.20;81.10;;;;;;5056974;28;20060;-63
2022/04/07 02:52:10;;;;;;;8.05;2.50;;;11.20;81.10;;;;;;5059122;28;20024;-64
2022/04/07 02:54:35;;;;;;;5.68;2.30;;;11.20;81.10;;;;;;5064166;28;20111;-64
2022/04/07 02:57:01;;;;;;;10.35;2.80;;;11.20;81.10;;;;;;5057905;28;20116;-64
2022/04/07 02:59:27;;;;;;;6.65;2.47;;;11.30;81.20;;;;;;5068829;28;20033;-63
2022/04/07 03:01:53;;;;;;;6.95;2.63;;;11.20;81.20;;;;;;5056613;28;20029;-64
2022/04/07 03:04:19;;;;;;;6.72;2.40;;;11.30;81.30;;;;;;5067652;28;20029;-63
2022/04/07 03:06:45;;;;;;;10.48;2.83;;;11.30;81.10;;;;;;5070401;28;20059;-63
2022/04/07 03:09:11;;;;;;;11.40;2.88;;;11.30;81.00;;;;;;5059004;28;20079;-64
2022/04/07 03:11:36;;;;;;;11.00;3.13;;;11.30;80.90;;;;;;5055830;28;20079;-64
2022/04/07 03:14:02;;;;;;;11.20;2.65;;;11.30;80.80;;;;;;5068451;28;20033;-64
2022/04/07 03:16:28;;;;;;;8.52;2.97;;;11.20;80.70;;;;;;5071036;28;20047;-63
2022/04/07 03:18:53;;;;;;;10.02;2.85;;;11.20;80.70;;;;;;5070989;28;20027;-64
2022/04/07 03:21:19;;;;;;;8.68;2.90;;;11.20;80.70;;;;;;5056309;28;20052;-64
2022/04/07 03:23:44;;;;;;;11.27;3.30;;;11.20;80.70;;;;;;5055520;28;20060;-64
2022/04/07 03:26:10;;;;;;;13.07;3.20;;;11.30;80.60;;;;;;5070042;28;20419;-63
2022/04/07 03:28:36;;;;;;;5.97;2.20;;;11.30;80.40;;;;;;5066935;28;20025;-64
2022/04/07 03:31:02;;;;;;;7.78;2.20;;;11.30;80.30;;;;;;5055813;28;20077;-63
2022/04/07 03:33:27;;;;;;;11.63;3.05;;;11.30;80.30;;;;;;5063826;28;20028;-63
2022/04/07 03:35:53;;;;;;;9.27;2.42;;;11.40;80.20;;;;;;5071497;28;20036;-64
2022/04/07 03:38:19;;;;;;;8.10;2.70;;;11.30;80.00;;;;;;5054269;28;20033;-63
2022/04/07 03:40:45;;;;;;;13.00;2.53;;;11.40;80.00;;;;;;5059595;28;20032;-63
2022/04/07 03:43:10;;;;;;;10.40;2.33;;;11.40;79.90;;;;;;5057701;28;20017;-64
2022/04/07 03:45:36;;;;;;;8.98;2.25;;;11.40;79.80;;;;;;5057659;28;20032;-63
2022/04/07 03:48:02;;;;;;;10.55;2.60;;;11.40;79.70;;;;;;5061183;28;20492;-63
2022/04/07 03:50:27;;;;;;;7.88;2.83;;;11.40;79.70;;;;;;5054894;28;20059;-64
2022/04/07 03:52:53;;;;;;;7.07;2.30;;;11.40;79.60;;;;;;5055817;28;20036;-64
2022/04/07 03:55:20;;;;;;;7.75;2.58;;;11.40;79.70;;;;;;5061940;28;20025;-64
2022/04/07 03:57:45;;;;;;;8.45;2.40;;;11.30;79.70;;;;;;5075961;28;20085;-64
2022/04/07 04:00:11;;;;;;;8.23;2.67;;;11.30;79.90;;;;;;5058183;28;20401;-64
2022/04/07 04:02:40;;;;;;;9.93;2.65;;;11.30;80.10;;;;;;5054769;28;20043;-64
2022/04/07 04:05:06;;;;;;;7.68;2.17;;;11.30;80.20;;;;;;5059294;28;20100;-64
2022/04/07 04:07:31;;;;;;;9.40;2.17;;;11.30;80.20;;;;;;5055826;28;20021;-63
2022/04/07 04:09:57;;;;;;;9.52;2.83;;;11.30;80.20;;;;;;5065690;28;20033;-63
2022/04/07 04:12:22;;;;;;;6.45;2.03;;;11.30;80.20;;;;;;5055668;28;20021;-63
2022/04/07 04:14:48;;;;;;;10.93;2.42;;;11.20;80.10;;;;;;5055480;28;20069;-64
2022/04/07 04:17:14;;;;;;;9.88;2.50;;;11.30;80.10;;;;;;5054028;28;20120;-64
2022/04/07 04:19:39;;;;;;;9.55;2.30;;;11.20;80.00;;;;;;5055160;28;20021;-64
2022/04/07 04:22:05;;;;;;;8.15;2.13;;;11.20;80.80;;;;;;5053988;28;20021;-64
2022/04/07 04:24:30;;;;;;;8.63;2.58;;;11.20;80.20;;;;;;5065585;28;20056;-64
2022/04/07 04:26:56;;;;;;;6.60;2.20;;;11.30;80.20;;;;;;5056027;28;20029;-64
2022/04/07 04:29:21;;;;;;;10.73;2.13;;;11.30;80.00;;;;;;5058506;28;20041;-64
2022/04/07 04:31:47;;;;;;;9.65;2.72;;;11.30;80.00;;;;;;5053543;28;20424;-64
2022/04/07 04:34:13;;;;;;;6.55;2.15;;;11.30;79.90;;;;;;5057678;28;20048;-64
2022/04/07 04:36:38;;;;;;;7.82;2.75;;;11.30;79.70;;;;;;5054536;28;20040;-64
2022/04/07 04:39:04;;;;;;;8.65;2.30;;;11.30;79.70;;;;;;5053725;28;20035;-64
2022/04/07 04:41:29;;;;;;;7.07;2.65;;;11.30;79.50;;;;;;5056584;28;20108;-64
2022/04/07 04:43:55;;;;;;;10.35;2.03;;;11.30;79.40;;;;;;5054292;28;20023;-64
2022/04/07 04:46:21;;;;;;;8.10;2.92;;;11.30;79.30;;;;;;5053844;28;20358;-63
2022/04/07 04:48:47;;;;;;;10.40;2.28;;;11.30;79.20;;;;;;5054966;28;20480;-64
2022/04/07 04:51:12;;;;;;;10.35;2.55;;;11.30;79.00;;;;;;5065752;28;20087;-63
2022/04/07 04:53:38;;;;;;;8.27;2.53;;;11.40;79.00;;;;;;5074808;28;20402;-63
2022/04/07 04:56:04;;;;;;;8.90;2.33;;;11.40;78.80;;;;;;5057946;28;20044;-64
2022/04/07 04:58:30;;;;;;;9.70;2.60;;;11.40;78.70;;;;;;5074216;28;20060;-64
2022/04/07 05:00:56;;;;;;;5.85;2.33;;;11.40;78.60;;;;;;5074279;28;20036;-64
2022/04/07 05:03:22;;;;;;;9.95;2.42;;;11.40;78.50;;;;;;5068939;28;20462;-64
2022/04/07 05:05:47;;;;;;;9.73;2.58;;;11.30;78.40;;;;;;5055880;28;20063;-64
2022/04/07 05:08:13;;;;;;;10.40;2.97;;;11.40;78.40;;;;;;5038423;28;20094;-64
2022/04/07 05:10:40;;;;;;;7.53;2.35;;;11.30;78.20;;;;;;5063715;28;20017;-64
2022/04/07 05:13:06;;;;;;;7.82;2.13;;;11.40;78.20;;;;;;5066987;28;20029;-64
2022/04/07 05:15:31;;;;;;;6.95;2.05;;;11.40;78.10;;;;;;5066004;28;20452;-64
2022/04/07 05:17:57;;;;;;;6.80;1.90;;;11.40;78.00;;;;;;5071423;28;20109;-63
2022/04/07 05:20:22;;;;;;;7.38;2.20;;;11.40;78.00;;;;;;5061883;28;20032;-64
2022/04/07 05:22:48;;;;;;;6.75;2.17;;;11.40;78.00;;;;;;5065714;28;20025;-64
2022/04/07 05:25:14;;;;;;;6.45;2.00;;;11.40;77.90;;;;;;5058177;28;20191;-63
2022/04/07 05:27:40;;;;;;;6.15;2.00;;;11.40;77.70;;;;;;5054674;28;20433;-64
2022/04/07 05:30:07;;;;;;;4.15;1.63;;;11.40;77.70;;;;;;5067157;28;20040;-63
2022/04/07 05:32:32;;;;;;;4.85;1.75;;;11.40;77.80;;;;;;5053989;28;20056;-63
2022/04/07 05:34:58;;;;;;;5.95;1.75;;;11.40;77.70;;;;;;5069041;28;20094;-63
2022/04/07 05:37:24;;;;;;;5.82;1.92;;;11.50;77.70;;;;;;5072874;28;20469;-63
2022/04/07 05:39:51;;;;;;;5.55;1.73;;;11.50;77.60;;;;;;5066710;28;20046;-63
2022/04/07 05:42:18;;;;;;;5.88;2.00;;;11.50;77.50;;;;;;5053408;28;20033;-63
2022/04/07 05:44:43;;;;;;;3.95;1.75;;;11.50;77.50;;;;;;5054077;28;20040;-64
2022/04/07 05:47:09;;;;;;;4.97;1.42;;;11.50;77.60;;;;;;5072087;28;20028;-63
2022/04/07 05:49:36;;;;;;;3.58;1.45;;;11.50;77.60;;;;;;5054561;28;20339;-63
2022/04/07 05:52:04;;;;;;;7.05;1.70;;;11.50;77.60;;;;;;5061983;28;20404;-64
2022/04/07 05:54:33;;;;;;;3.45;1.45;;;11.50;77.70;;;;;;5054305;28;20117;-63
2022/04/07 05:56:58;;;;;;;5.20;1.63;;;11.50;77.90;;;;;;5055163;28;20044;-62
2022/04/07 05:59:24;;;;;;;2.92;1.27;;;11.50;77.90;;;;;;5059680;28;20025;-63
2022/04/07 06:01:50;;;;;;;4.65;1.38;;;11.50;78.00;;;;;;5054502;28;20051;-63
2022/04/07 06:04:16;;;;;;;3.72;1.20;;;11.50;78.10;;;;;;5054635;28;20135;-63
2022/04/07 06:06:41;;;;;;;4.72;1.63;;;11.50;78.90;;;;;;5053130;28;20102;-63
2022/04/07 06:09:07;;;;;;;6.80;1.60;;;11.50;78.30;;;;;;5053764;28;20025;-63
2022/04/07 06:11:33;;;;;;;4.40;1.50;;;11.50;78.50;;;;;;5052877;28;20454;-63
2022/04/07 06:13:58;;;;;;;3.60;1.40;;;11.40;78.60;;;;;;5054387;28;20021;-63
2022/04/07 06:16:24;;;;;;;3.53;1.45;;;11.40;78.80;;;;;;5053652;28;20033;-63
2022/04/07 06:18:51;;;;;;;3.72;1.38;;;11.40;78.90;;;;;;5053506;28;20029;-63
2022/04/07 06:21:17;;;;;;;1.60;1.02;;;11.40;79.00;;;;;;5053145;28;20044;-63
2022/04/07 06:23:42;;;;;;;3.70;1.27;;;11.40;79.10;;;;;;5051543;28;20116;-63
2022/04/07 06:26:08;;;;;;;4.70;1.52;;;11.40;79.20;;;;;;5054445;28;20406;-63
2022/04/07 06:28:34;;;;;;;5.00;1.60;;;11.40;79.20;;;;;;5053423;28;20132;-63
2022/04/07 06:30:59;;;;;;;3.42;1.60;;;11.40;79.30;;;;;;5065889;28;20040;-63
2022/04/07 06:33:25;;;;;;;2.45;1.20;;;11.40;79.40;;;;;;5058615;28;20097;-63
2022/04/07 06:35:51;;;;;;;4.85;1.90;;;11.40;79.50;;;;;;5068555;28;20365;-63
2022/04/07 06:38:17;;;;;;;4.38;1.42;;;11.40;79.50;;;;;;5053112;28;20027;-63
2022/04/07 06:40:43;;;;;;;4.55;1.45;;;11.40;79.60;;;;;;5053168;28;20048;-63
2022/04/07 06:43:08;;;;;;;5.63;1.80;;;11.40;79.80;;;;;;5035000;28;20474;-63
2022/04/07 06:45:34;;;;;;;5.15;1.73;;;11.40;79.90;;;;;;5053603;28;20029;-63
2022/04/07 06:48:00;;;;;;;5.13;1.85;;;11.40;80.00;;;;;;5056525;28;20469;-63
2022/04/07 06:50:26;;;;;;;4.10;1.50;;;11.40;80.00;;;;;;5058447;28;20041;-64
2022/04/07 06:52:53;;;;;;;5.03;1.90;;;11.40;80.10;;;;;;5077328;28;20361;-63
2022/04/07 06:55:19;;;;;;;6.25;1.63;;;11.40;80.20;;;;;;5064954;28;20068;-64
2022/04/07 06:57:54;;;;;;;7.00;2.00;;;11.40;80.30;;;;;;5057954;28;20118;-64
2022/04/07 07:00:22;;;;;;;7.95;2.13;;;11.40;80.40;;;;;;5058809;28;20021;-64
2022/04/07 07:02:51;;;;;;;4.28;1.70;;;11.40;80.30;;;;;;5056949;28;20469;-64
2022/04/07 07:05:17;;;;;;;5.55;1.60;;;11.40;80.40;;;;;;5055805;28;20357;-63
2022/04/07 07:07:43;;;;;;;3.15;1.65;;;11.40;80.40;;;;;;5074896;28;20107;-64
2022/04/07 07:10:09;;;;;;;3.30;1.33;;;11.40;80.40;;;;;;5068492;28;20033;-63
2022/04/07 07:12:34;;;;;;;3.10;0.90;;;11.30;80.00;;;;;;5060044;28;20037;-64
2022/04/07 07:15:00;;;;;;;2.30;0.80;;;11.10;79.50;;;;;;5058592;28;20464;-64
2022/04/07 07:17:33;;;;;;;1.85;0.68;;;10.90;79.10;;;;;;5070762;28;20024;-64
2022/04/07 07:20:06;;;;;;;2.95;0.60;;;10.60;78.80;;;;;;5076951;28;20025;-63
2022/04/07 07:22:31;;;;;;;1.88;0.52;;;10.30;78.80;;;;;;5073751;28;20501;-65
2022/04/07 07:24:58;;;;;;;2.22;0.70;;;10.20;79.00;;;;;;5071714;28;20025;-64
2022/04/07 07:27:24;;;;;;;2.08;1.00;;;10.10;78.90;;;;;;5059368;28;20037;-63
2022/04/07 07:29:50;;;;;;;2.55;0.80;;;10.00;78.70;;;;;;5056296;28;20017;-64
2022/04/07 07:32:15;;;;;;;2.15;0.60;;;9.90;78.60;;;;;;5056284;28;20392;-63
2022/04/07 07:34:41;;;;;;;2.45;0.80;;;9.90;78.50;;;;;;5073968;28;20040;-63
2022/04/07 07:37:06;;;;;;;1.50;0.55;;;9.90;78.50;;;;;;5046594;28;20125;-63
2022/04/07 07:39:32;;;;;;;2.92;0.73;;;9.80;78.40;;;;;;5061592;28;20021;-64
2022/04/07 07:41:57;;;;;;;3.17;0.98;;;9.80;78.40;;;;;;5047705;28;20537;-62
2022/04/07 07:44:24;;;;;;;2.28;0.85;;;9.80;78.30;;;;;;5064509;28;20464;-62
2022/04/07 07:46:50;;;;;;;2.90;0.73;;;9.90;78.20;;;;;;5064549;28;20429;-62
2022/04/07 07:49:16;;;;;;;2.65;0.75;;;9.90;78.10;;;;;;5056947;28;20122;-62
2022/04/07 07:51:42;;;;;;;2.67;1.10;;;9.80;77.90;;;;;;5051870;28;20051;-62
2022/04/07 07:54:08;;;;;;;1.95;0.77;;;9.80;78.00;;;;;;5052645;28;20025;-63
2022/04/07 07:56:33;;;;;;;1.80;0.73;;;9.80;78.00;;;;;;5053251;28;20021;-63
2022/04/07 07:58:59;;;;;;;3.58;1.05;;;9.80;77.90;;;;;;5054560;28;20037;-62
2022/04/07 08:01:25;;;;;;;3.47;1.05;;;9.80;77.90;;;;;;5051845;28;20104;-61
2022/04/07 08:03:50;;;;;;;3.35;1.10;;;9.80;77.90;;;;;;5049558;28;20022;-62
2022/04/07 08:06:16;;;;;;;4.10;1.20;;;9.70;77.80;;;;;;5061006;28;20360;-61
2022/04/07 08:08:42;;;;;;;4.07;1.00;;;9.70;77.80;;;;;;5052695;28;20473;-61
2022/04/07 08:11:07;;;;;;;4.47;1.30;;;9.70;77.90;;;;;;5053200;28;20056;-61
2022/04/07 08:13:33;;;;;;;3.28;1.20;;;9.70;78.00;;;;;;5057582;28;20040;-61
2022/04/07 08:15:58;;;;;;;2.92;1.08;;;9.70;78.00;;;;;;5054208;28;20040;-61
2022/04/07 08:18:24;;;;;;;3.97;1.10;;;9.70;78.00;;;;;;5053387;28;20029;-62
2022/04/07 08:20:50;;;;;;;3.35;1.50;;;9.70;78.00;;;;;;5053613;28;20036;-62
2022/04/07 08:23:15;;;;;;;4.03;1.20;;;9.70;78.00;;;;;;5055275;28;20319;-62
2022/04/07 08:25:41;;;;;;;6.63;1.17;;;9.70;77.90;;;;;;5054125;28;20075;-62
2022/04/07 08:28:07;;;;;;;3.63;1.15;;;9.70;78.00;;;;;;5054816;28;20108;-63
2022/04/07 08:30:34;;;;;;;5.43;1.13;;;9.70;78.60;;;;;;5054800;28;20029;-61
2022/04/07 08:33:01;;;;;;;6.07;1.30;;;9.70;77.90;;;;;;5054031;28;20072;-62
2022/04/07 08:35:27;;;;;;;6.65;1.17;;;9.70;77.90;;;;;;5054427;28;20029;-62
2022/04/07 08:37:52;;;;;;;4.20;1.30;;;9.80;77.90;;;;;;5037364;28;20029;-62
2022/04/07 08:40:20;;;;;;;6.45;1.52;;;9.90;77.90;;;;;;5055402;28;20048;-62
2022/04/07 08:42:45;;;;;;;5.10;1.52;;;10.10;77.80;;;;;;5054433;28;20484;-62
2022/04/07 08:45:11;;;;;;;2.40;1.10;;;10.20;77.60;;;;;;5037431;28;20138;-63
2022/04/07 08:47:37;;;;;;;3.42;1.20;;;10.40;77.50;;;;;;5054920;28;20043;-62
2022/04/07 08:50:04;;;;;;;2.90;1.02;;;10.50;77.10;;;;;;5037174;28;20094;-62
2022/04/07 08:52:30;;;;;;;2.83;0.95;;;10.50;77.00;;;;;;5054551;28;20689;-62
2022/04/07 08:54:56;;;;;;;4.47;1.40;;;10.80;77.00;;;;;;5054502;28;20401;-62
2022/04/07 08:57:23;;;;;;;4.22;1.42;;;11.30;76.60;;;;;;5054430;28;20033;-62
2022/04/07 08:59:48;;;;;;;5.70;1.35;;;11.80;75.80;;;;;;5054909;28;20029;-62
2022/04/07 09:02:14;;;;;;;3.67;1.20;;;12.30;75.60;;;;;;5053547;28;20365;-62
2022/04/07 09:04:40;;;;;;;2.85;1.08;;;12.60;74.10;;;;;;5052444;28;20403;-62
2022/04/07 09:07:09;;;;;;;5.90;1.50;;;13.00;73.60;;;;;;5052889;28;20037;-62
2022/04/07 09:09:38;;;;;;;3.28;1.10;;;13.30;72.80;;;;;;5053055;28;20489;-62
2022/04/07 09:12:05;;;;;;;4.65;1.15;;;13.50;72.40;;;;;;5054408;28;20033;-62
2022/04/07 09:14:37;;;;;;;4.07;1.20;;;13.40;72.20;;;;;;5054652;28;20461;-62
2022/04/07 09:17:04;;;;;;;4.40;1.50;;;13.30;72.30;;;;;;5054543;28;20346;-62
2022/04/07 09:19:30;;;;;;;3.35;1.10;;;13.40;72.50;;;;;;5054968;28;20426;-62
2022/04/07 09:22:08;;;;;;;2.60;1.45;;;13.60;72.20;;;;;;5054523;28;20017;-62
2022/04/07 09:24:40;;;;;;;4.40;1.10;;;13.70;72.00;;;;;;5054623;28;20103;-62
2022/04/07 09:27:10;;;;;;;2.90;1.02;;;13.70;71.90;;;;;;5054276;28;20033;-62
2022/04/07 09:29:44;;;;;;;5.30;1.13;;;13.60;71.90;;;;;;5053730;28;20025;-61
2022/04/07 09:32:20;;;;;;;2.80;0.90;;;13.50;72.00;;;;;;5053806;28;20052;-62
2022/04/07 09:35:00;;;;;;;5.85;1.67;;;13.40;72.10;;;;;;5036821;28;20036;-62
2022/04/07 09:37:29;;;;;;;5.63;1.30;;;13.20;72.40;;;;;;5053481;28;20441;-62
2022/04/07 09:40:13;;;;;;;3.50;1.10;;;13.00;72.60;;;;;;5053697;28;20060;-62
2022/04/07 09:42:41;;;;;;;6.78;1.35;;;12.90;72.60;;;;;;5054416;28;20450;-62
2022/04/07 09:45:11;;;;;;;2.25;0.95;;;12.80;72.70;;;;;;5053970;28;20048;-62
2022/04/07 09:47:45;;;;;;;4.78;1.33;;;12.90;72.60;;;;;;5052990;28;20032;-62
2022/04/07 09:50:22;;;;;;;2.47;1.05;;;12.80;72.40;;;;;;5037986;28;20056;-62
2022/04/07 09:53:14;;;;;;;4.57;1.10;;;13.00;72.30;;;;;;5054194;28;20397;-62
2022/04/07 09:55:41;;;;;;;3.85;1.23;;;13.40;71.80;;;;;;5054916;28;20446;-63
2022/04/07 09:58:08;;;;;;;4.75;1.35;;;13.50;70.90;;;;;;5053198;28;20167;-62
2022/04/07 10:00:35;;;;;;;5.00;1.20;;;13.60;70.60;;;;;;5053607;28;20086;-62
2022/04/07 10:03:04;;;;;;;4.80;1.25;;;13.80;70.20;;;;;;5053771;28;20334;-62
2022/04/07 10:05:31;;;;;;;3.00;0.98;;;14.00;69.50;;;;;;5054814;28;20452;-62
2022/04/07 10:07:57;;;;;;;8.90;1.63;;;13.90;69.40;;;;;;5053094;28;20025;-62
2022/04/07 10:10:24;;;;;;;5.03;1.48;;;13.80;69.30;;;;;;5052965;28;20025;-62
2022/04/07 10:12:51;;;;;;;5.85;1.40;;;13.90;69.40;;;;;;5053469;28;20033;-63
2022/04/07 10:15:17;;;;;;;6.78;1.58;;;13.70;68.90;;;;;;5053902;28;20032;-62
2022/04/07 10:17:44;;;;;;;5.10;1.17;;;13.80;68.60;;;;;;5054470;28;20029;-62
2022/04/07 10:20:18;;;;;;;6.10;1.23;;;13.80;68.40;;;;;;5063658;28;20512;-62
2022/04/07 10:23:23;;;;;;;3.03;1.00;;;13.80;68.00;;;;;;5059944;28;20051;-62
2022/04/07 10:25:49;;;;;;;5.50;1.35;;;13.60;67.90;;;;;;5046288;28;20447;-62
2022/04/07 10:28:16;;;;;;;5.05;1.33;;;13.50;67.90;;;;;;5068437;28;20047;-62
2022/04/07 10:30:50;;;;;;;5.68;1.63;;;13.40;67.80;;;;;;5070326;28;20050;-63
2022/04/07 10:33:40;;;;;;;6.97;1.38;;;13.30;67.80;;;;;;5068662;28;20165;-63
2022/04/07 10:36:16;;;;;;;6.70;1.30;;;13.20;67.80;;;;;;5073866;28;20124;-63
2022/04/07 10:38:43;;;;;;;7.15;1.88;;;13.20;67.60;;;;;;5047370;28;20120;-63
2022/04/07 10:41:09;;;;;;;5.22;1.48;;;13.10;67.30;;;;;;5054743;28;20033;-63
2022/04/07 10:43:40;;;;;;;5.13;1.20;;;13.20;66.70;;;;;;5057299;28;20504;-63
2022/04/07 10:46:11;;;;;;;7.15;1.30;;;13.10;66.10;;;;;;5042837;28;20047;-63
2022/04/07 10:48:38;;;;;;;9.10;2.03;;;13.00;65.70;;;;;;5056467;28;20025;-63
2022/04/07 10:51:04;;;;;;;5.05;1.58;;;13.30;65.60;;;;;;5065501;28;20123;-63
2022/04/07 10:53:35;;;;;;;7.15;1.65;;;13.50;65.10;;;;;;5057988;28;20112;-63
2022/04/07 10:56:05;;;;;;;7.53;1.42;;;13.60;64.60;;;;;;5038975;28;20045;-63
2022/04/07 10:58:45;;;;;;;8.82;1.73;;;13.60;64.20;;;;;;5067346;28;20108;-62
2022/04/07 11:01:29;;;;;;;5.20;1.20;;;13.60;63.90;;;;;;5073293;28;20036;-63
2022/04/07 11:04:25;;;;;;;8.15;1.73;;;13.70;63.70;;;;;;5063244;28;20025;-63
2022/04/07 11:07:10;;;;;;;7.70;1.48;;;13.70;63.30;;;;;;5064985;28;20055;-64
2022/04/07 11:09:57;;;;;;;5.45;1.60;;;13.60;62.80;;;;;;5055835;28;20484;-63
2022/04/07 11:12:25;;;;;;;6.47;1.60;;;13.30;62.80;;;;;;5063032;28;20491;-63
2022/04/07 11:15:03;;;;;;;8.40;2.05;;;13.10;63.00;;;;;;5059234;28;20028;-62
2022/04/07 11:17:32;;;;;;;10.07;2.40;;;13.00;62.90;;;;;;5052681;28;20032;-62
2022/04/07 11:20:18;;;;;;;8.80;1.77;;;12.80;63.00;;;;;;5056506;28;20064;-62
2022/04/07 11:23:17;;;;;;;7.88;1.90;;;12.70;63.20;;;;;;5060095;28;20360;-61
2022/04/07 11:25:43;;;;;;;8.80;1.88;;;12.60;63.00;;;;;;5059948;28;20424;-62
2022/04/07 11:28:17;;;;;;;11.68;2.13;;;12.50;63.40;;;;;;5056825;28;20033;-62
2022/04/07 11:30:48;;;;;;;6.72;1.35;;;12.50;63.50;;;;;;5056141;28;20037;-62
2022/04/07 11:33:20;;;;;;;5.75;1.85;;;12.40;63.40;;;;;;5056232;28;20055;-62
2022/04/07 11:36:00;;;;;;;8.20;1.85;;;12.40;63.50;;;;;;5056906;28;20362;-62
2022/04/07 11:38:28;;;;;;;9.50;1.87;;;12.30;63.30;;;;;;5057187;28;20024;-62
2022/04/07 11:41:02;;;;;;;10.80;2.03;;;12.30;63.30;;;;;;5056985;28;20300;-62
2022/04/07 11:43:28;;;;;;;5.10;1.80;;;12.30;63.30;;;;;;5056592;28;20025;-62
2022/04/07 11:45:58;;;;;;;10.23;2.10;;;12.30;63.20;;;;;;5056824;28;20120;-62
2022/04/07 11:48:29;;;;;;;8.40;2.58;;;12.30;62.80;;;;;;5056581;28;20354;-62
2022/04/07 11:50:57;;;;;;;;;;;12.30;62.90;;;;;;5057390;28;20036;-62
2022/04/07 11:53:23;;;;;;;7.97;1.90;;;12.30;62.90;;;;;;5056479;28;20031;-62
2022/04/07 11:55:50;;;;;;;8.70;2.05;;;12.30;62.80;;;;;;5056321;28;20098;-61
2022/04/07 11:58:16;;;;;;;9.98;2.45;;;12.40;62.40;;;;;;5056246;28;20021;-62
2022/04/07 12:00:42;;;;;;;8.27;1.80;;;12.40;62.20;;;;;;5056363;28;20090;-62
2022/04/07 12:03:08;;;;;;;7.15;1.70;;;12.40;62.20;;;;;;5056378;28;20033;-61
2022/04/07 12:05:40;;;;;;;6.63;1.83;;;12.50;61.80;;;;;;5055173;28;20032;-62
2022/04/07 12:08:13;;;;;;;7.85;1.88;;;12.40;61.60;;;;;;5056257;28;20171;-62
2022/04/07 12:10:41;;;;;;;10.93;1.88;;;12.40;61.50;;;;;;5056647;28;20089;-62
2022/04/07 12:13:07;;;;;;;10.23;2.40;;;12.50;61.50;;;;;;5055117;28;20444;-61
2022/04/07 12:15:39;;;;;;;8.00;1.83;;;12.50;61.30;;;;;;5055780;28;20029;-62
2022/04/07 12:18:08;;;;;;;;;;;12.60;61.20;;;;;;5056397;28;20024;-62
2022/04/07 12:20:38;;;;;;;13.85;1.73;;;12.70;61.30;;;;;;5055833;28;19913;-62
2022/04/07 12:23:13;;;;;;;10.27;1.75;;;12.70;61.30;;;;;;5054627;28;20032;-62
2022/04/07 12:25:41;;;;;;;8.07;2.17;;;12.80;61.20;;;;;;5055181;28;20132;-62
2022/04/07 12:28:12;;;;;;;10.77;2.53;;;12.80;61.10;;;;;;5056375;28;20032;-62
2022/04/07 12:30:51;;;;;;;10.57;2.45;;;12.80;61.00;;;;;;5055776;28;20101;-63
2022/04/07 12:33:43;;;;;;;10.07;2.20;;;12.80;60.30;;;;;;5055462;28;20044;-62
2022/04/07 12:36:11;;;;;;;7.90;2.42;;;12.70;60.70;;;;;;5055867;28;20036;-62
2022/04/07 12:38:39;;;;;;;11.60;2.50;;;12.60;61.00;;;;;;5054954;28;20462;-62
2022/04/07 12:41:16;;;;;;;7.45;1.90;;;12.60;61.10;;;;;;5055509;28;20032;-62
2022/04/07 12:43:42;;;;;;;7.93;2.05;;;12.60;60.90;;;;;;5054545;28;20029;-62
2022/04/07 12:46:09;;;;;;;8.60;2.03;;;12.60;60.70;;;;;;5055582;28;20128;-62
2022/04/07 12:48:35;;;;;;;9.85;2.30;;;12.60;60.70;;;;;;5055007;28;20041;-62
2022/04/07 12:51:21;;;;;;;7.32;2.22;;;12.60;60.30;;;;;;5055211;28;20063;-62